Mount Auburn, Iowa
Current Conditions -  °F | °C
As of 6:35 AM on Monday 22 Dec 2014 (Local Time) from KVTI Reporting Station
Broken Clouds Broken Clouds  
Wind Chill: 31°   Ceiling: 2300
Heat Index: 38°   Visibility: 7mi
Dew Point: 33°   Wind: 9mph
Humidity: 83%   Direction: 150°SSE
Pressure: 29.74"   Gusts: NA
Location:  42.25°N, 92.09°W
Report Text: KVTI 221235Z AUTO 15008KT 7SM BKN023 BKN044 03/01 A2974 RMK AO2 T00310005
Loading
Personal Weather Stations






























Interactive Weather Map New forecast layout! Learn more

10-Day Weather Forecast

Advertisements
Track Severe Weather on mobile